sensor_id;sensor_type;location;lat;lon;timestamp;temperature;humidity
36458;DHT22;22480;50.546;12.292;2023-04-21T00:00:06;6.40;99.90
36458;DHT22;22480;50.546;12.292;2023-04-21T00:02:34;6.40;99.90
36458;DHT22;22480;50.546;12.292;2023-04-21T00:05:05;6.50;99.90
36458;DHT22;22480;50.546;12.292;2023-04-21T00:07:34;6.40;99.90
36458;DHT22;22480;50.546;12.292;2023-04-21T00:10:03;6.40;99.90
36458;DHT22;22480;50.546;12.292;2023-04-21T00:12:29;6.40;99.90
36458;DHT22;22480;50.546;12.292;2023-04-21T00:14:55;6.40;99.90
36458;DHT22;22480;50.546;12.292;2023-04-21T00:17:20;6.40;99.90
36458;DHT22;22480;50.546;12.292;2023-04-21T00:19:46;6.40;99.90
36458;DHT22;22480;50.546;12.292;2023-04-21T00:22:12;6.50;99.90
36458;DHT22;22480;50.546;12.292;2023-04-21T00:24:39;6.40;99.90
36458;DHT22;22480;50.546;12.292;2023-04-21T00:27:05;6.40;99.90
36458;DHT22;22480;50.546;12.292;2023-04-21T00:29:31;6.40;99.90
36458;DHT22;22480;50.546;12.292;2023-04-21T00:31:57;6.30;99.90
36458;DHT22;22480;50.546;12.292;2023-04-21T00:34:22;6.30;99.90
36458;DHT22;22480;50.546;12.292;2023-04-21T00:36:48;6.30;99.90
36458;DHT22;22480;50.546;12.292;2023-04-21T00:39:14;6.30;99.90
36458;DHT22;22480;50.546;12.292;2023-04-21T00:41:40;6.30;99.90
36458;DHT22;22480;50.546;12.292;2023-04-21T00:44:07;6.30;99.90
36458;DHT22;22480;50.546;12.292;2023-04-21T00:46:34;6.20;99.90
36458;DHT22;22480;50.546;12.292;2023-04-21T00:49:03;6.30;99.90
36458;DHT22;22480;50.546;12.292;2023-04-21T00:51:29;6.30;99.90
36458;DHT22;22480;50.546;12.292;2023-04-21T00:54:00;6.30;99.90
36458;DHT22;22480;50.546;12.292;2023-04-21T00:56:28;6.10;99.90
36458;DHT22;22480;50.546;12.292;2023-04-21T00:58:59;6.20;99.90
36458;DHT22;22480;50.546;12.292;2023-04-21T01:01:27;6.20;99.90
36458;DHT22;22480;50.546;12.292;2023-04-21T01:03:57;6.20;99.90
36458;DHT22;22480;50.546;12.292;2023-04-21T01:06:23;6.30;99.90
36458;DHT22;22480;50.546;12.292;2023-04-21T01:08:51;6.40;99.90
36458;DHT22;22480;50.546;12.292;2023-04-21T01:11:17;6.30;99.90
36458;DHT22;22480;50.546;12.292;2023-04-21T01:13:43;6.20;99.90
36458;DHT22;22480;50.546;12.292;2023-04-21T01:16:17;6.20;99.90
36458;DHT22;22480;50.546;12.292;2023-04-21T01:18:44;6.20;99.90
36458;DHT22;22480;50.546;12.292;2023-04-21T01:21:11;6.10;99.90
36458;DHT22;22480;50.546;12.292;2023-04-21T01:23:40;6.20;99.90
36458;DHT22;22480;50.546;12.292;2023-04-21T01:26:06;6.20;99.90
36458;DHT22;22480;50.546;12.292;2023-04-21T01:28:35;6.20;99.90
36458;DHT22;22480;50.546;12.292;2023-04-21T01:31:03;6.10;99.90
36458;DHT22;22480;50.546;12.292;2023-04-21T01:33:29;6.10;99.90
36458;DHT22;22480;50.546;12.292;2023-04-21T01:35:56;6.10;99.90
36458;DHT22;22480;50.546;12.292;2023-04-21T01:38:22;6.10;99.90
36458;DHT22;22480;50.546;12.292;2023-04-21T01:40:51;6.10;99.90
36458;DHT22;22480;50.546;12.292;2023-04-21T01:43:23;6.10;99.90
36458;DHT22;22480;50.546;12.292;2023-04-21T01:45:49;6.10;99.90
36458;DHT22;22480;50.546;12.292;2023-04-21T01:48:15;6.20;99.90
36458;DHT22;22480;50.546;12.292;2023-04-21T01:50:40;6.20;99.90
36458;DHT22;22480;50.546;12.292;2023-04-21T01:53:08;6.20;99.90
36458;DHT22;22480;50.546;12.292;2023-04-21T01:55:34;6.20;99.90
36458;DHT22;22480;50.546;12.292;2023-04-21T01:58:00;6.20;99.90
36458;DHT22;22480;50.546;12.292;2023-04-21T02:00:26;6.30;99.90
36458;DHT22;22480;50.546;12.292;2023-04-21T02:02:52;6.30;99.90
36458;DHT22;22480;50.546;12.292;2023-04-21T02:05:18;6.30;99.90
36458;DHT22;22480;50.546;12.292;2023-04-21T02:07:44;6.30;99.90
36458;DHT22;22480;50.546;12.292;2023-04-21T02:10:10;6.30;99.90
36458;DHT22;22480;50.546;12.292;2023-04-21T02:12:36;6.30;99.90
36458;DHT22;22480;50.546;12.292;2023-04-21T02:15:02;6.40;99.90
36458;DHT22;22480;50.546;12.292;2023-04-21T02:17:28;6.30;99.90
36458;DHT22;22480;50.546;12.292;2023-04-21T02:19:55;6.40;99.90
36458;DHT22;22480;50.546;12.292;2023-04-21T02:22:21;6.40;99.90
36458;DHT22;22480;50.546;12.292;2023-04-21T02:24:48;6.40;99.90
36458;DHT22;22480;50.546;12.292;2023-04-21T02:27:14;6.40;99.90
36458;DHT22;22480;50.546;12.292;2023-04-21T02:29:40;6.40;99.90
36458;DHT22;22480;50.546;12.292;2023-04-21T02:32:07;6.40;99.90
36458;DHT22;22480;50.546;12.292;2023-04-21T02:34:33;6.30;99.90
36458;DHT22;22480;50.546;12.292;2023-04-21T02:36:58;6.30;99.90
36458;DHT22;22480;50.546;12.292;2023-04-21T02:39:25;6.40;99.90
36458;DHT22;22480;50.546;12.292;2023-04-21T02:41:50;6.40;99.90
36458;DHT22;22480;50.546;12.292;2023-04-21T02:44:16;6.40;99.90
36458;DHT22;22480;50.546;12.292;2023-04-21T02:46:43;6.40;99.90
36458;DHT22;22480;50.546;12.292;2023-04-21T02:49:09;6.40;99.90
36458;DHT22;22480;50.546;12.292;2023-04-21T02:51:36;6.50;99.90
36458;DHT22;22480;50.546;12.292;2023-04-21T02:54:02;6.40;99.90
36458;DHT22;22480;50.546;12.292;2023-04-21T02:56:28;6.40;99.90
36458;DHT22;22480;50.546;12.292;2023-04-21T02:58:53;6.40;99.90
36458;DHT22;22480;50.546;12.292;2023-04-21T03:01:19;6.30;99.90
36458;DHT22;22480;50.546;12.292;2023-04-21T03:03:45;6.20;99.90
36458;DHT22;22480;50.546;12.292;2023-04-21T03:06:11;6.20;99.90
36458;DHT22;22480;50.546;12.292;2023-04-21T03:08:38;6.20;99.90
36458;DHT22;22480;50.546;12.292;2023-04-21T03:11:04;6.30;99.90
36458;DHT22;22480;50.546;12.292;2023-04-21T03:13:30;6.30;99.90
36458;DHT22;22480;50.546;12.292;2023-04-21T03:15:56;6.30;99.90
36458;DHT22;22480;50.546;12.292;2023-04-21T03:18:22;6.30;99.90
36458;DHT22;22480;50.546;12.292;2023-04-21T03:20:49;6.30;99.90
36458;DHT22;22480;50.546;12.292;2023-04-21T03:23:15;6.20;99.90
36458;DHT22;22480;50.546;12.292;2023-04-21T03:25:42;6.20;99.90
36458;DHT22;22480;50.546;12.292;2023-04-21T03:28:08;6.20;99.90
36458;DHT22;22480;50.546;12.292;2023-04-21T03:30:33;6.30;99.90
36458;DHT22;22480;50.546;12.292;2023-04-21T03:32:59;6.30;99.90
36458;DHT22;22480;50.546;12.292;2023-04-21T03:35:25;6.30;99.90
36458;DHT22;22480;50.546;12.292;2023-04-21T03:37:51;6.20;99.90
36458;DHT22;22480;50.546;12.292;2023-04-21T03:40:17;6.30;99.90
36458;DHT22;22480;50.546;12.292;2023-04-21T03:42:42;6.40;99.90
36458;DHT22;22480;50.546;12.292;2023-04-21T03:45:09;6.40;99.90
36458;DHT22;22480;50.546;12.292;2023-04-21T03:47:35;6.40;99.90
36458;DHT22;22480;50.546;12.292;2023-04-21T03:50:05;6.50;99.90
36458;DHT22;22480;50.546;12.292;2023-04-21T03:52:31;6.50;99.90
36458;DHT22;22480;50.546;12.292;2023-04-21T03:54:57;6.50;99.90
36458;DHT22;22480;50.546;12.292;2023-04-21T03:57:23;6.40;99.90
36458;DHT22;22480;50.546;12.292;2023-04-21T03:59:49;6.60;99.90
36458;DHT22;22480;50.546;12.292;2023-04-21T04:02:14;6.70;99.90
36458;DHT22;22480;50.546;12.292;2023-04-21T04:04:40;6.70;99.90
36458;DHT22;22480;50.546;12.292;2023-04-21T04:07:06;6.70;99.90
36458;DHT22;22480;50.546;12.292;2023-04-21T04:09:33;6.70;99.90
36458;DHT22;22480;50.546;12.292;2023-04-21T04:11:59;6.70;99.90
36458;DHT22;22480;50.546;12.292;2023-04-21T04:14:24;6.60;99.90
36458;DHT22;22480;50.546;12.292;2023-04-21T04:16:50;6.60;99.90
36458;DHT22;22480;50.546;12.292;2023-04-21T04:19:16;6.60;99.90
36458;DHT22;22480;50.546;12.292;2023-04-21T04:21:41;6.70;99.90
36458;DHT22;22480;50.546;12.292;2023-04-21T04:24:07;6.70;99.90
36458;DHT22;22480;50.546;12.292;2023-04-21T04:26:35;6.70;99.90
36458;DHT22;22480;50.546;12.292;2023-04-21T04:29:03;6.80;99.90
36458;DHT22;22480;50.546;12.292;2023-04-21T04:31:30;6.90;99.90
36458;DHT22;22480;50.546;12.292;2023-04-21T04:33:57;7.00;99.90
36458;DHT22;22480;50.546;12.292;2023-04-21T04:36:23;7.00;99.90
36458;DHT22;22480;50.546;12.292;2023-04-21T04:38:49;7.00;99.90
36458;DHT22;22480;50.546;12.292;2023-04-21T04:41:15;7.00;99.90
36458;DHT22;22480;50.546;12.292;2023-04-21T04:43:41;7.00;99.90
36458;DHT22;22480;50.546;12.292;2023-04-21T04:46:07;7.00;99.90
36458;DHT22;22480;50.546;12.292;2023-04-21T04:48:37;6.90;99.90
36458;DHT22;22480;50.546;12.292;2023-04-21T04:51:03;6.90;99.90
36458;DHT22;22480;50.546;12.292;2023-04-21T04:53:29;6.90;99.90
36458;DHT22;22480;50.546;12.292;2023-04-21T04:55:54;6.90;99.90
36458;DHT22;22480;50.546;12.292;2023-04-21T04:58:22;6.90;99.90
36458;DHT22;22480;50.546;12.292;2023-04-21T05:00:48;7.00;99.90
36458;DHT22;22480;50.546;12.292;2023-04-21T05:03:13;7.00;99.90
36458;DHT22;22480;50.546;12.292;2023-04-21T05:05:39;7.20;99.90
36458;DHT22;22480;50.546;12.292;2023-04-21T05:08:05;7.30;99.90
36458;DHT22;22480;50.546;12.292;2023-04-21T05:10:30;7.50;99.90
36458;DHT22;22480;50.546;12.292;2023-04-21T05:12:56;7.70;99.90
36458;DHT22;22480;50.546;12.292;2023-04-21T05:15:22;7.80;99.90
36458;DHT22;22480;50.546;12.292;2023-04-21T05:17:48;7.90;99.90
36458;DHT22;22480;50.546;12.292;2023-04-21T05:20:14;8.10;99.90
36458;DHT22;22480;50.546;12.292;2023-04-21T05:22:40;8.30;99.90
36458;DHT22;22480;50.546;12.292;2023-04-21T05:25:06;8.50;99.90
36458;DHT22;22480;50.546;12.292;2023-04-21T05:27:32;8.80;99.90
36458;DHT22;22480;50.546;12.292;2023-04-21T05:29:59;9.30;99.90
36458;DHT22;22480;50.546;12.292;2023-04-21T05:32:25;9.80;99.90
36458;DHT22;22480;50.546;12.292;2023-04-21T05:34:51;10.20;99.90
36458;DHT22;22480;50.546;12.292;2023-04-21T05:37:16;10.50;99.90
36458;DHT22;22480;50.546;12.292;2023-04-21T05:39:42;10.90;99.90
36458;DHT22;22480;50.546;12.292;2023-04-21T05:42:11;11.10;99.90
36458;DHT22;22480;50.546;12.292;2023-04-21T05:44:37;11.30;99.90
36458;DHT22;22480;50.546;12.292;2023-04-21T05:47:05;11.30;99.90
36458;DHT22;22480;50.546;12.292;2023-04-21T05:49:32;11.30;99.90
36458;DHT22;22480;50.546;12.292;2023-04-21T05:51:58;11.40;99.90
36458;DHT22;22480;50.546;12.292;2023-04-21T05:54:24;11.50;99.90
36458;DHT22;22480;50.546;12.292;2023-04-21T05:56:50;11.80;99.90
36458;DHT22;22480;50.546;12.292;2023-04-21T05:59:16;11.90;99.90
36458;DHT22;22480;50.546;12.292;2023-04-21T06:01:42;12.10;99.90
36458;DHT22;22480;50.546;12.292;2023-04-21T06:04:08;12.30;99.90
36458;DHT22;22480;50.546;12.292;2023-04-21T06:06:34;12.50;99.90
36458;DHT22;22480;50.546;12.292;2023-04-21T06:08:59;12.50;99.90
36458;DHT22;22480;50.546;12.292;2023-04-21T06:11:25;12.60;99.90
36458;DHT22;22480;50.546;12.292;2023-04-21T06:13:51;12.60;99.90
36458;DHT22;22480;50.546;12.292;2023-04-21T06:16:22;12.70;99.90
36458;DHT22;22480;50.546;12.292;2023-04-21T06:18:48;12.80;99.90
36458;DHT22;22480;50.546;12.292;2023-04-21T06:21:14;12.90;99.90
36458;DHT22;22480;50.546;12.292;2023-04-21T06:23:40;12.90;99.90
36458;DHT22;22480;50.546;12.292;2023-04-21T06:26:07;12.90;99.90
36458;DHT22;22480;50.546;12.292;2023-04-21T06:28:34;13.10;99.90
36458;DHT22;22480;50.546;12.292;2023-04-21T06:31:01;13.30;99.90
36458;DHT22;22480;50.546;12.292;2023-04-21T06:33:27;13.30;99.90
36458;DHT22;22480;50.546;12.292;2023-04-21T06:35:53;13.40;99.90
36458;DHT22;22480;50.546;12.292;2023-04-21T06:38:19;13.70;99.90
36458;DHT22;22480;50.546;12.292;2023-04-21T06:40:45;13.90;99.90
36458;DHT22;22480;50.546;12.292;2023-04-21T06:43:11;14.20;99.90
36458;DHT22;22480;50.546;12.292;2023-04-21T06:45:36;14.30;99.90
36458;DHT22;22480;50.546;12.292;2023-04-21T06:48:02;14.40;99.90
36458;DHT22;22480;50.546;12.292;2023-04-21T06:50:28;14.50;99.90
36458;DHT22;22480;50.546;12.292;2023-04-21T06:52:54;14.60;99.90
36458;DHT22;22480;50.546;12.292;2023-04-21T06:55:19;14.60;99.90
36458;DHT22;22480;50.546;12.292;2023-04-21T06:57:45;14.60;99.90
36458;DHT22;22480;50.546;12.292;2023-04-21T07:00:12;14.60;99.90
36458;DHT22;22480;50.546;12.292;2023-04-21T07:02:38;14.80;99.90
36458;DHT22;22480;50.546;12.292;2023-04-21T07:05:04;15.00;99.90
36458;DHT22;22480;50.546;12.292;2023-04-21T07:07:30;15.10;99.90
36458;DHT22;22480;50.546;12.292;2023-04-21T07:09:55;15.10;99.90
36458;DHT22;22480;50.546;12.292;2023-04-21T07:12:21;15.20;99.90
36458;DHT22;22480;50.546;12.292;2023-04-21T07:14:47;15.20;99.90
36458;DHT22;22480;50.546;12.292;2023-04-21T07:17:12;15.30;99.90
36458;DHT22;22480;50.546;12.292;2023-04-21T07:19:38;15.30;99.90
36458;DHT22;22480;50.546;12.292;2023-04-21T07:22:04;15.40;99.90
36458;DHT22;22480;50.546;12.292;2023-04-21T07:24:30;15.40;99.90
36458;DHT22;22480;50.546;12.292;2023-04-21T07:26:56;15.40;99.90
36458;DHT22;22480;50.546;12.292;2023-04-21T07:29:22;15.40;99.90
36458;DHT22;22480;50.546;12.292;2023-04-21T07:31:48;15.40;99.90
36458;DHT22;22480;50.546;12.292;2023-04-21T07:34:14;15.40;99.90
36458;DHT22;22480;50.546;12.292;2023-04-21T07:36:40;15.40;99.90
36458;DHT22;22480;50.546;12.292;2023-04-21T07:39:06;15.50;99.90
36458;DHT22;22480;50.546;12.292;2023-04-21T07:41:33;15.60;99.90
36458;DHT22;22480;50.546;12.292;2023-04-21T07:43:58;15.70;99.90
36458;DHT22;22480;50.546;12.292;2023-04-21T07:46:24;15.90;99.90
36458;DHT22;22480;50.546;12.292;2023-04-21T07:48:55;16.20;99.90
36458;DHT22;22480;50.546;12.292;2023-04-21T07:51:21;16.60;98.20
36458;DHT22;22480;50.546;12.292;2023-04-21T07:53:47;16.80;97.10
36458;DHT22;22480;50.546;12.292;2023-04-21T07:56:13;17.00;84.50
36458;DHT22;22480;50.546;12.292;2023-04-21T07:58:38;17.10;92.70
36458;DHT22;22480;50.546;12.292;2023-04-21T08:01:04;17.50;83.10
36458;DHT22;22480;50.546;12.292;2023-04-21T08:03:30;17.50;81.80
36458;DHT22;22480;50.546;12.292;2023-04-21T08:05:55;17.50;77.00
36458;DHT22;22480;50.546;12.292;2023-04-21T08:08:21;17.50;74.10
36458;DHT22;22480;50.546;12.292;2023-04-21T08:10:47;17.40;74.10
36458;DHT22;22480;50.546;12.292;2023-04-21T08:13:13;17.50;71.90
36458;DHT22;22480;50.546;12.292;2023-04-21T08:15:39;17.60;72.60
36458;DHT22;22480;50.546;12.292;2023-04-21T08:18:05;17.60;73.00
36458;DHT22;22480;50.546;12.292;2023-04-21T08:20:30;17.60;73.10
36458;DHT22;22480;50.546;12.292;2023-04-21T08:22:56;17.60;71.30
36458;DHT22;22480;50.546;12.292;2023-04-21T08:25:22;17.80;75.10
36458;DHT22;22480;50.546;12.292;2023-04-21T08:27:48;18.00;70.10
36458;DHT22;22480;50.546;12.292;2023-04-21T08:30:14;18.00;71.10
36458;DHT22;22480;50.546;12.292;2023-04-21T08:32:40;18.20;70.60
36458;DHT22;22480;50.546;12.292;2023-04-21T08:35:06;18.20;75.50
36458;DHT22;22480;50.546;12.292;2023-04-21T08:37:32;18.30;65.70
36458;DHT22;22480;50.546;12.292;2023-04-21T08:40:00;18.30;67.80
36458;DHT22;22480;50.546;12.292;2023-04-21T08:42:25;18.60;67.00
36458;DHT22;22480;50.546;12.292;2023-04-21T08:44:51;18.60;67.00
36458;DHT22;22480;50.546;12.292;2023-04-21T08:47:17;18.70;64.80
36458;DHT22;22480;50.546;12.292;2023-04-21T08:49:45;18.70;65.60
36458;DHT22;22480;50.546;12.292;2023-04-21T08:52:12;18.70;65.00
36458;DHT22;22480;50.546;12.292;2023-04-21T08:54:39;18.70;64.60
36458;DHT22;22480;50.546;12.292;2023-04-21T08:57:05;18.50;66.80
36458;DHT22;22480;50.546;12.292;2023-04-21T08:59:31;18.20;66.70
36458;DHT22;22480;50.546;12.292;2023-04-21T09:02:17;17.80;67.10
36458;DHT22;22480;50.546;12.292;2023-04-21T09:04:47;17.70;66.30
36458;DHT22;22480;50.546;12.292;2023-04-21T09:07:42;17.50;70.10
36458;DHT22;22480;50.546;12.292;2023-04-21T09:10:08;17.20;77.00
36458;DHT22;22480;50.546;12.292;2023-04-21T09:12:33;17.30;70.80
36458;DHT22;22480;50.546;12.292;2023-04-21T09:15:03;17.40;72.00
36458;DHT22;22480;50.546;12.292;2023-04-21T09:17:30;17.50;69.10
36458;DHT22;22480;50.546;12.292;2023-04-21T09:20:14;17.80;69.90
36458;DHT22;22480;50.546;12.292;2023-04-21T09:22:40;18.20;70.40
36458;DHT22;22480;50.546;12.292;2023-04-21T09:25:06;18.50;66.50
36458;DHT22;22480;50.546;12.292;2023-04-21T09:27:35;18.80;70.90
36458;DHT22;22480;50.546;12.292;2023-04-21T09:30:02;19.00;66.50
36458;DHT22;22480;50.546;12.292;2023-04-21T09:32:28;19.50;63.50
36458;DHT22;22480;50.546;12.292;2023-04-21T09:34:59;19.60;62.30
36458;DHT22;22480;50.546;12.292;2023-04-21T09:37:25;19.60;62.10
36458;DHT22;22480;50.546;12.292;2023-04-21T09:39:50;19.70;62.30
36458;DHT22;22480;50.546;12.292;2023-04-21T09:42:16;19.50;60.60
36458;DHT22;22480;50.546;12.292;2023-04-21T09:44:42;19.70;61.30
36458;DHT22;22480;50.546;12.292;2023-04-21T09:47:09;20.30;61.90
36458;DHT22;22480;50.546;12.292;2023-04-21T09:49:38;20.50;61.50
36458;DHT22;22480;50.546;12.292;2023-04-21T09:52:09;20.00;59.30
36458;DHT22;22480;50.546;12.292;2023-04-21T09:54:42;19.50;60.80
36458;DHT22;22480;50.546;12.292;2023-04-21T09:57:12;19.20;60.50
36458;DHT22;22480;50.546;12.292;2023-04-21T09:59:44;19.10;60.10
36458;DHT22;22480;50.546;12.292;2023-04-21T10:02:11;19.20;60.30
36458;DHT22;22480;50.546;12.292;2023-04-21T10:04:40;18.90;59.00
36458;DHT22;22480;50.546;12.292;2023-04-21T10:07:06;18.90;61.00
36458;DHT22;22480;50.546;12.292;2023-04-21T10:09:40;19.30;62.10
36458;DHT22;22480;50.546;12.292;2023-04-21T10:12:08;19.90;59.10
36458;DHT22;22480;50.546;12.292;2023-04-21T10:14:34;20.50;57.30
36458;DHT22;22480;50.546;12.292;2023-04-21T10:17:04;20.40;56.30
36458;DHT22;22480;50.546;12.292;2023-04-21T10:19:30;20.50;56.70
36458;DHT22;22480;50.546;12.292;2023-04-21T10:22:00;20.60;57.30
36458;DHT22;22480;50.546;12.292;2023-04-21T10:24:29;20.90;55.30
36458;DHT22;22480;50.546;12.292;2023-04-21T10:26:58;20.90;54.80
36458;DHT22;22480;50.546;12.292;2023-04-21T10:29:28;21.20;54.90
36458;DHT22;22480;50.546;12.292;2023-04-21T10:31:55;21.50;56.30
36458;DHT22;22480;50.546;12.292;2023-04-21T10:34:34;21.50;53.80
36458;DHT22;22480;50.546;12.292;2023-04-21T10:39:36;21.40;53.60
36458;DHT22;22480;50.546;12.292;2023-04-21T10:44:51;21.50;52.80
36458;DHT22;22480;50.546;12.292;2023-04-21T10:47:50;21.60;51.90
36458;DHT22;22480;50.546;12.292;2023-04-21T10:50:19;22.00;52.60
36458;DHT22;22480;50.546;12.292;2023-04-21T10:52:51;22.60;54.40
36458;DHT22;22480;50.546;12.292;2023-04-21T10:55:18;22.80;49.20
36458;DHT22;22480;50.546;12.292;2023-04-21T10:57:45;22.70;50.40
36458;DHT22;22480;50.546;12.292;2023-04-21T11:00:15;22.60;52.70
36458;DHT22;22480;50.546;12.292;2023-04-21T11:02:42;22.80;50.60
36458;DHT22;22480;50.546;12.292;2023-04-21T11:05:08;22.60;51.10
36458;DHT22;22480;50.546;12.292;2023-04-21T11:07:34;22.30;49.40
36458;DHT22;22480;50.546;12.292;2023-04-21T11:10:06;21.90;49.80
36458;DHT22;22480;50.546;12.292;2023-04-21T11:12:35;22.10;51.90
36458;DHT22;22480;50.546;12.292;2023-04-21T11:15:09;22.50;50.00
36458;DHT22;22480;50.546;12.292;2023-04-21T11:17:35;22.70;50.20
36458;DHT22;22480;50.546;12.292;2023-04-21T11:20:04;22.60;49.70
36458;DHT22;22480;50.546;12.292;2023-04-21T11:22:31;22.50;51.40
36458;DHT22;22480;50.546;12.292;2023-04-21T11:24:57;22.70;49.70
36458;DHT22;22480;50.546;12.292;2023-04-21T11:27:25;22.60;49.20
36458;DHT22;22480;50.546;12.292;2023-04-21T11:29:52;22.80;51.40
36458;DHT22;22480;50.546;12.292;2023-04-21T11:32:17;23.10;49.00
36458;DHT22;22480;50.546;12.292;2023-04-21T11:34:44;23.00;49.40
36458;DHT22;22480;50.546;12.292;2023-04-21T11:37:14;23.20;49.90
36458;DHT22;22480;50.546;12.292;2023-04-21T11:39:41;23.70;51.00
36458;DHT22;22480;50.546;12.292;2023-04-21T11:42:08;24.20;49.10
36458;DHT22;22480;50.546;12.292;2023-04-21T11:44:41;24.20;48.40
36458;DHT22;22480;50.546;12.292;2023-04-21T11:47:22;24.60;49.60
36458;DHT22;22480;50.546;12.292;2023-04-21T11:49:49;25.20;48.20
36458;DHT22;22480;50.546;12.292;2023-04-21T11:52:25;25.50;50.10
36458;DHT22;22480;50.546;12.292;2023-04-21T11:54:59;25.90;47.20
36458;DHT22;22480;50.546;12.292;2023-04-21T11:57:26;25.20;48.00
36458;DHT22;22480;50.546;12.292;2023-04-21T11:59:53;24.80;47.40
36458;DHT22;22480;50.546;12.292;2023-04-21T12:02:23;23.70;48.20
36458;DHT22;22480;50.546;12.292;2023-04-21T12:07:32;23.90;49.90
36458;DHT22;22480;50.546;12.292;2023-04-21T12:09:59;24.60;48.90
36458;DHT22;22480;50.546;12.292;2023-04-21T12:12:25;25.40;49.50
36458;DHT22;22480;50.546;12.292;2023-04-21T12:14:51;25.80;47.00
36458;DHT22;22480;50.546;12.292;2023-04-21T12:17:17;25.40;46.50
36458;DHT22;22480;50.546;12.292;2023-04-21T12:19:43;25.20;45.50
36458;DHT22;22480;50.546;12.292;2023-04-21T12:22:14;25.00;47.60
36458;DHT22;22480;50.546;12.292;2023-04-21T12:24:42;24.50;46.70
36458;DHT22;22480;50.546;12.292;2023-04-21T12:27:08;24.40;48.10
36458;DHT22;22480;50.546;12.292;2023-04-21T12:29:34;24.50;48.80
36458;DHT22;22480;50.546;12.292;2023-04-21T12:32:04;24.60;46.60
36458;DHT22;22480;50.546;12.292;2023-04-21T12:34:30;24.80;48.20
36458;DHT22;22480;50.546;12.292;2023-04-21T12:36:56;24.80;47.80
36458;DHT22;22480;50.546;12.292;2023-04-21T12:39:22;24.40;47.50
36458;DHT22;22480;50.546;12.292;2023-04-21T12:41:48;24.30;50.80
36458;DHT22;22480;50.546;12.292;2023-04-21T12:44:14;24.50;49.30
36458;DHT22;22480;50.546;12.292;2023-04-21T12:46:40;24.40;49.20
36458;DHT22;22480;50.546;12.292;2023-04-21T12:49:06;24.70;51.40
36458;DHT22;22480;50.546;12.292;2023-04-21T12:51:33;24.60;47.00
36458;DHT22;22480;50.546;12.292;2023-04-21T12:53:59;25.20;48.00
36458;DHT22;22480;50.546;12.292;2023-04-21T12:56:25;25.40;47.60
36458;DHT22;22480;50.546;12.292;2023-04-21T12:58:51;25.90;46.40
36458;DHT22;22480;50.546;12.292;2023-04-21T13:01:17;26.00;46.70
36458;DHT22;22480;50.546;12.292;2023-04-21T13:03:43;26.20;48.60
36458;DHT22;22480;50.546;12.292;2023-04-21T13:06:09;26.80;47.40
36458;DHT22;22480;50.546;12.292;2023-04-21T13:08:35;25.90;45.20
36458;DHT22;22480;50.546;12.292;2023-04-21T13:11:02;24.50;47.00
36458;DHT22;22480;50.546;12.292;2023-04-21T13:13:27;23.90;48.90
36458;DHT22;22480;50.546;12.292;2023-04-21T13:15:53;23.80;48.80
36458;DHT22;22480;50.546;12.292;2023-04-21T13:18:19;23.60;51.70
36458;DHT22;22480;50.546;12.292;2023-04-21T13:20:45;22.80;51.40
36458;DHT22;22480;50.546;12.292;2023-04-21T13:23:10;21.90;53.50
36458;DHT22;22480;50.546;12.292;2023-04-21T13:25:39;21.10;54.30
36458;DHT22;22480;50.546;12.292;2023-04-21T13:28:04;21.20;55.90
36458;DHT22;22480;50.546;12.292;2023-04-21T13:30:32;21.40;53.70
36458;DHT22;22480;50.546;12.292;2023-04-21T13:32:58;21.30;53.70
36458;DHT22;22480;50.546;12.292;2023-04-21T13:35:24;21.40;54.00
36458;DHT22;22480;50.546;12.292;2023-04-21T13:37:50;21.50;52.80
36458;DHT22;22480;50.546;12.292;2023-04-21T13:40:15;21.20;54.20
36458;DHT22;22480;50.546;12.292;2023-04-21T13:42:41;21.80;54.00
36458;DHT22;22480;50.546;12.292;2023-04-21T13:45:07;22.10;53.20
36458;DHT22;22480;50.546;12.292;2023-04-21T13:47:33;23.00;52.80
36458;DHT22;22480;50.546;12.292;2023-04-21T13:50:00;24.10;50.90
36458;DHT22;22480;50.546;12.292;2023-04-21T13:52:26;24.30;48.90
36458;DHT22;22480;50.546;12.292;2023-04-21T13:54:52;24.70;49.90
36458;DHT22;22480;50.546;12.292;2023-04-21T13:57:18;24.70;49.40
36458;DHT22;22480;50.546;12.292;2023-04-21T13:59:44;24.90;48.00
36458;DHT22;22480;50.546;12.292;2023-04-21T14:02:10;25.30;50.40
36458;DHT22;22480;50.546;12.292;2023-04-21T14:04:36;26.00;47.10
36458;DHT22;22480;50.546;12.292;2023-04-21T14:07:02;26.40;48.00
36458;DHT22;22480;50.546;12.292;2023-04-21T14:09:28;26.70;47.00
36458;DHT22;22480;50.546;12.292;2023-04-21T14:11:54;26.10;45.10
36458;DHT22;22480;50.546;12.292;2023-04-21T14:14:20;26.30;46.20
36458;DHT22;22480;50.546;12.292;2023-04-21T14:16:46;26.50;48.70
36458;DHT22;22480;50.546;12.292;2023-04-21T14:19:15;26.60;47.50
36458;DHT22;22480;50.546;12.292;2023-04-21T14:21:41;26.00;46.40
36458;DHT22;22480;50.546;12.292;2023-04-21T14:24:07;24.50;48.40
36458;DHT22;22480;50.546;12.292;2023-04-21T14:26:33;22.80;51.10
36458;DHT22;22480;50.546;12.292;2023-04-21T14:28:59;21.40;53.10
36458;DHT22;22480;50.546;12.292;2023-04-21T14:31:26;20.80;55.60
36458;DHT22;22480;50.546;12.292;2023-04-21T14:33:52;20.20;56.20
36458;DHT22;22480;50.546;12.292;2023-04-21T14:36:19;20.30;57.20
36458;DHT22;22480;50.546;12.292;2023-04-21T14:38:45;20.90;56.80
36458;DHT22;22480;50.546;12.292;2023-04-21T14:41:11;20.80;56.00
36458;DHT22;22480;50.546;12.292;2023-04-21T14:43:36;20.90;55.50
36458;DHT22;22480;50.546;12.292;2023-04-21T14:46:02;21.10;55.90
36458;DHT22;22480;50.546;12.292;2023-04-21T14:48:28;22.20;55.40
36458;DHT22;22480;50.546;12.292;2023-04-21T14:50:54;23.50;53.10
36458;DHT22;22480;50.546;12.292;2023-04-21T14:53:23;24.90;51.10
36458;DHT22;22480;50.546;12.292;2023-04-21T14:55:48;26.10;49.90
36458;DHT22;22480;50.546;12.292;2023-04-21T14:58:15;26.30;46.70
36458;DHT22;22480;50.546;12.292;2023-04-21T15:00:40;26.40;45.70
36458;DHT22;22480;50.546;12.292;2023-04-21T15:03:06;25.30;47.30
36458;DHT22;22480;50.546;12.292;2023-04-21T15:05:32;24.20;50.90
36458;DHT22;22480;50.546;12.292;2023-04-21T15:07:59;23.70;50.20
36458;DHT22;22480;50.546;12.292;2023-04-21T15:10:25;22.60;50.00
36458;DHT22;22480;50.546;12.292;2023-04-21T15:12:51;21.70;52.10
36458;DHT22;22480;50.546;12.292;2023-04-21T15:15:17;21.20;53.30
36458;DHT22;22480;50.546;12.292;2023-04-21T15:17:43;20.80;55.20
36458;DHT22;22480;50.546;12.292;2023-04-21T15:20:09;21.00;56.90
36458;DHT22;22480;50.546;12.292;2023-04-21T15:22:35;21.80;58.20
36458;DHT22;22480;50.546;12.292;2023-04-21T15:25:01;22.80;57.20
36458;DHT22;22480;50.546;12.292;2023-04-21T15:27:27;23.60;56.20